sensor_id;sensor_type;location;lat;lon;timestamp;P1;durP1;ratioP1;P2;durP2;ratioP2
146;SDS011;45999;48.808;9.182;2022-12-18T00:03:53;53.13;;;28.67;;
146;SDS011;45999;48.808;9.182;2022-12-18T00:06:22;50.10;;;29.17;;
146;SDS011;45999;48.808;9.182;2022-12-18T00:08:49;51.77;;;29.23;;
146;SDS011;45999;48.808;9.182;2022-12-18T00:11:18;52.70;;;28.90;;
146;SDS011;45999;48.808;9.182;2022-12-18T00:13:46;53.43;;;27.90;;
146;SDS011;45999;48.808;9.182;2022-12-18T00:16:14;55.33;;;29.27;;
146;SDS011;45999;48.808;9.182;2022-12-18T00:18:46;57.27;;;29.73;;
146;SDS011;45999;48.808;9.182;2022-12-18T00:21:17;55.97;;;30.03;;
146;SDS011;45999;48.808;9.182;2022-12-18T00:23:45;49.37;;;28.77;;
146;SDS011;45999;48.808;9.182;2022-12-18T00:26:16;57.00;;;30.50;;
146;SDS011;45999;48.808;9.182;2022-12-18T00:28:50;56.90;;;29.30;;
146;SDS011;45999;48.808;9.182;2022-12-18T00:31:22;52.70;;;29.73;;
146;SDS011;45999;48.808;9.182;2022-12-18T00:33:50;54.90;;;30.50;;
146;SDS011;45999;48.808;9.182;2022-12-18T00:36:18;53.83;;;28.40;;
146;SDS011;45999;48.808;9.182;2022-12-18T00:38:46;55.23;;;29.23;;
146;SDS011;45999;48.808;9.182;2022-12-18T00:41:13;57.87;;;30.10;;
146;SDS011;45999;48.808;9.182;2022-12-18T00:44:02;55.30;;;30.00;;
146;SDS011;45999;48.808;9.182;2022-12-18T00:46:28;57.53;;;30.07;;
146;SDS011;45999;48.808;9.182;2022-12-18T00:48:55;58.93;;;31.73;;
146;SDS011;45999;48.808;9.182;2022-12-18T00:51:21;57.93;;;29.57;;
146;SDS011;45999;48.808;9.182;2022-12-18T00:53:48;58.10;;;30.33;;
146;SDS011;45999;48.808;9.182;2022-12-18T00:56:14;60.37;;;29.17;;
146;SDS011;45999;48.808;9.182;2022-12-18T00:58:40;59.30;;;31.23;;
146;SDS011;45999;48.808;9.182;2022-12-18T01:01:07;56.77;;;29.63;;
146;SDS011;45999;48.808;9.182;2022-12-18T01:03:33;59.47;;;31.23;;
146;SDS011;45999;48.808;9.182;2022-12-18T01:06:05;60.77;;;29.37;;
146;SDS011;45999;48.808;9.182;2022-12-18T01:08:33;54.27;;;28.13;;
146;SDS011;45999;48.808;9.182;2022-12-18T01:11:00;57.67;;;29.33;;
146;SDS011;45999;48.808;9.182;2022-12-18T01:13:27;50.73;;;28.97;;
146;SDS011;45999;48.808;9.182;2022-12-18T01:15:53;55.23;;;30.63;;
146;SDS011;45999;48.808;9.182;2022-12-18T01:18:20;53.17;;;28.73;;
146;SDS011;45999;48.808;9.182;2022-12-18T01:20:46;57.20;;;29.83;;
146;SDS011;45999;48.808;9.182;2022-12-18T01:23:12;51.63;;;28.07;;
146;SDS011;45999;48.808;9.182;2022-12-18T01:25:39;55.17;;;30.23;;
146;SDS011;45999;48.808;9.182;2022-12-18T01:28:05;52.27;;;28.20;;
146;SDS011;45999;48.808;9.182;2022-12-18T01:30:31;50.47;;;28.13;;
146;SDS011;45999;48.808;9.182;2022-12-18T01:32:58;53.97;;;28.43;;
146;SDS011;45999;48.808;9.182;2022-12-18T01:35:24;50.53;;;27.70;;
146;SDS011;45999;48.808;9.182;2022-12-18T01:37:53;55.63;;;28.47;;
146;SDS011;45999;48.808;9.182;2022-12-18T01:40:20;52.23;;;26.67;;
146;SDS011;45999;48.808;9.182;2022-12-18T01:42:51;54.43;;;26.67;;
146;SDS011;45999;48.808;9.182;2022-12-18T01:47:45;48.27;;;27.07;;
146;SDS011;45999;48.808;9.182;2022-12-18T01:50:21;48.40;;;27.43;;
146;SDS011;45999;48.808;9.182;2022-12-18T01:53:36;48.30;;;26.00;;
146;SDS011;45999;48.808;9.182;2022-12-18T01:55:39;49.90;;;26.10;;
146;SDS011;45999;48.808;9.182;2022-12-18T01:58:12;50.90;;;26.17;;
146;SDS011;45999;48.808;9.182;2022-12-18T02:00:39;45.87;;;25.50;;
146;SDS011;45999;48.808;9.182;2022-12-18T02:03:06;46.83;;;25.33;;
146;SDS011;45999;48.808;9.182;2022-12-18T02:08:22;48.50;;;24.67;;
146;SDS011;45999;48.808;9.182;2022-12-18T02:11:00;52.70;;;25.83;;
146;SDS011;45999;48.808;9.182;2022-12-18T02:18:57;43.10;;;24.63;;
146;SDS011;45999;48.808;9.182;2022-12-18T02:24:10;47.13;;;24.83;;
146;SDS011;45999;48.808;9.182;2022-12-18T02:27:01;44.20;;;23.63;;
146;SDS011;45999;48.808;9.182;2022-12-18T02:29:33;50.80;;;25.97;;
146;SDS011;45999;48.808;9.182;2022-12-18T02:32:06;44.27;;;23.90;;
146;SDS011;45999;48.808;9.182;2022-12-18T02:34:38;51.70;;;26.17;;
146;SDS011;45999;48.808;9.182;2022-12-18T02:37:07;43.50;;;24.47;;
146;SDS011;45999;48.808;9.182;2022-12-18T02:39:44;44.57;;;25.27;;
146;SDS011;45999;48.808;9.182;2022-12-18T02:42:14;39.07;;;23.03;;
146;SDS011;45999;48.808;9.182;2022-12-18T02:44:43;41.50;;;24.30;;
146;SDS011;45999;48.808;9.182;2022-12-18T02:47:14;44.63;;;24.73;;
146;SDS011;45999;48.808;9.182;2022-12-18T02:50:02;45.43;;;25.73;;
146;SDS011;45999;48.808;9.182;2022-12-18T02:52:34;45.00;;;24.23;;
146;SDS011;45999;48.808;9.182;2022-12-18T02:57:54;48.33;;;25.13;;
146;SDS011;45999;48.808;9.182;2022-12-18T03:00:30;46.03;;;24.93;;
146;SDS011;45999;48.808;9.182;2022-12-18T03:03:08;46.03;;;24.00;;
146;SDS011;45999;48.808;9.182;2022-12-18T03:05:59;43.93;;;24.33;;
146;SDS011;45999;48.808;9.182;2022-12-18T03:08:30;47.67;;;23.57;;
146;SDS011;45999;48.808;9.182;2022-12-18T03:11:02;46.67;;;24.80;;
146;SDS011;45999;48.808;9.182;2022-12-18T03:13:36;48.53;;;24.50;;
146;SDS011;45999;48.808;9.182;2022-12-18T03:16:06;46.53;;;24.23;;
146;SDS011;45999;48.808;9.182;2022-12-18T03:18:47;43.97;;;23.37;;
146;SDS011;45999;48.808;9.182;2022-12-18T03:21:22;46.23;;;24.50;;
146;SDS011;45999;48.808;9.182;2022-12-18T03:23:54;40.17;;;22.87;;
146;SDS011;45999;48.808;9.182;2022-12-18T03:26:22;48.30;;;24.40;;
146;SDS011;45999;48.808;9.182;2022-12-18T03:29:00;47.67;;;24.47;;
146;SDS011;45999;48.808;9.182;2022-12-18T03:31:33;39.60;;;23.00;;
146;SDS011;45999;48.808;9.182;2022-12-18T03:34:04;41.30;;;22.37;;
146;SDS011;45999;48.808;9.182;2022-12-18T03:36:35;41.78;;;24.15;;
146;SDS011;45999;48.808;9.182;2022-12-18T03:39:01;44.93;;;22.73;;
146;SDS011;45999;48.808;9.182;2022-12-18T03:41:38;44.30;;;23.33;;
146;SDS011;45999;48.808;9.182;2022-12-18T03:44:14;41.60;;;22.97;;
146;SDS011;45999;48.808;9.182;2022-12-18T03:46:53;38.93;;;21.97;;
146;SDS011;45999;48.808;9.182;2022-12-18T03:55:15;40.43;;;21.50;;
146;SDS011;45999;48.808;9.182;2022-12-18T03:57:44;41.43;;;22.60;;
146;SDS011;45999;48.808;9.182;2022-12-18T04:00:13;38.17;;;22.47;;
146;SDS011;45999;48.808;9.182;2022-12-18T04:02:43;43.97;;;23.33;;
146;SDS011;45999;48.808;9.182;2022-12-18T04:05:14;39.90;;;21.60;;
146;SDS011;45999;48.808;9.182;2022-12-18T04:07:42;43.65;;;23.52;;
146;SDS011;45999;48.808;9.182;2022-12-18T04:10:12;43.93;;;23.10;;
146;SDS011;45999;48.808;9.182;2022-12-18T04:12:40;38.28;;;21.90;;
146;SDS011;45999;48.808;9.182;2022-12-18T04:15:07;43.38;;;23.33;;
146;SDS011;45999;48.808;9.182;2022-12-18T04:17:34;38.40;;;21.00;;
146;SDS011;45999;48.808;9.182;2022-12-18T04:20:01;39.23;;;21.67;;
146;SDS011;45999;48.808;9.182;2022-12-18T04:22:27;39.40;;;22.50;;
146;SDS011;45999;48.808;9.182;2022-12-18T04:24:53;35.17;;;20.30;;
146;SDS011;45999;48.808;9.182;2022-12-18T04:27:20;38.10;;;21.23;;
146;SDS011;45999;48.808;9.182;2022-12-18T04:29:47;40.40;;;22.27;;
146;SDS011;45999;48.808;9.182;2022-12-18T04:32:13;36.90;;;21.13;;
146;SDS011;45999;48.808;9.182;2022-12-18T04:34:40;39.77;;;22.17;;
146;SDS011;45999;48.808;9.182;2022-12-18T04:37:06;37.47;;;22.13;;
146;SDS011;45999;48.808;9.182;2022-12-18T04:39:32;37.03;;;19.57;;
146;SDS011;45999;48.808;9.182;2022-12-18T04:41:59;37.13;;;21.87;;
146;SDS011;45999;48.808;9.182;2022-12-18T04:44:25;37.87;;;20.07;;
146;SDS011;45999;48.808;9.182;2022-12-18T04:46:52;39.07;;;21.23;;
146;SDS011;45999;48.808;9.182;2022-12-18T04:49:21;36.90;;;20.93;;
146;SDS011;45999;48.808;9.182;2022-12-18T04:51:47;36.70;;;20.40;;
146;SDS011;45999;48.808;9.182;2022-12-18T04:54:13;36.20;;;20.60;;
146;SDS011;45999;48.808;9.182;2022-12-18T04:56:40;38.40;;;21.30;;
146;SDS011;45999;48.808;9.182;2022-12-18T04:59:06;36.43;;;20.97;;
146;SDS011;45999;48.808;9.182;2022-12-18T05:01:32;36.53;;;20.70;;
146;SDS011;45999;48.808;9.182;2022-12-18T05:03:59;37.50;;;21.43;;
146;SDS011;45999;48.808;9.182;2022-12-18T05:06:25;35.87;;;19.83;;
146;SDS011;45999;48.808;9.182;2022-12-18T05:08:52;38.53;;;21.40;;
146;SDS011;45999;48.808;9.182;2022-12-18T05:11:18;37.27;;;19.97;;
146;SDS011;45999;48.808;9.182;2022-12-18T05:13:45;38.67;;;21.43;;
146;SDS011;45999;48.808;9.182;2022-12-18T05:16:12;35.17;;;21.00;;
146;SDS011;45999;48.808;9.182;2022-12-18T05:18:39;39.73;;;20.27;;
146;SDS011;45999;48.808;9.182;2022-12-18T05:21:06;37.37;;;21.23;;
146;SDS011;45999;48.808;9.182;2022-12-18T05:23:34;40.95;;;22.00;;
146;SDS011;45999;48.808;9.182;2022-12-18T05:26:01;38.07;;;20.87;;
146;SDS011;45999;48.808;9.182;2022-12-18T05:28:31;38.00;;;21.13;;
146;SDS011;45999;48.808;9.182;2022-12-18T05:31:00;38.20;;;20.15;;
146;SDS011;45999;48.808;9.182;2022-12-18T05:33:29;39.90;;;21.67;;
146;SDS011;45999;48.808;9.182;2022-12-18T05:35:57;35.07;;;19.77;;
146;SDS011;45999;48.808;9.182;2022-12-18T05:38:29;38.37;;;21.00;;
146;SDS011;45999;48.808;9.182;2022-12-18T05:40:56;37.53;;;20.20;;
146;SDS011;45999;48.808;9.182;2022-12-18T05:43:24;36.40;;;21.00;;
146;SDS011;45999;48.808;9.182;2022-12-18T05:45:51;39.40;;;20.70;;
146;SDS011;45999;48.808;9.182;2022-12-18T05:48:18;35.50;;;20.23;;
146;SDS011;45999;48.808;9.182;2022-12-18T05:50:45;35.87;;;20.50;;
146;SDS011;45999;48.808;9.182;2022-12-18T05:53:14;35.03;;;19.70;;
146;SDS011;45999;48.808;9.182;2022-12-18T05:55:42;34.90;;;19.23;;
146;SDS011;45999;48.808;9.182;2022-12-18T05:58:09;37.17;;;19.97;;
146;SDS011;45999;48.808;9.182;2022-12-18T06:00:38;35.53;;;19.33;;
146;SDS011;45999;48.808;9.182;2022-12-18T06:03:07;36.20;;;21.10;;
146;SDS011;45999;48.808;9.182;2022-12-18T06:05:36;33.63;;;20.30;;
146;SDS011;45999;48.808;9.182;2022-12-18T06:08:03;38.27;;;20.07;;
146;SDS011;45999;48.808;9.182;2022-12-18T06:10:30;34.67;;;20.47;;
146;SDS011;45999;48.808;9.182;2022-12-18T06:12:57;35.43;;;20.03;;
146;SDS011;45999;48.808;9.182;2022-12-18T06:15:23;33.27;;;19.90;;
146;SDS011;45999;48.808;9.182;2022-12-18T06:17:50;37.57;;;20.27;;
146;SDS011;45999;48.808;9.182;2022-12-18T06:20:17;35.90;;;18.97;;
146;SDS011;45999;48.808;9.182;2022-12-18T06:22:44;32.00;;;18.60;;
146;SDS011;45999;48.808;9.182;2022-12-18T06:25:10;33.30;;;19.03;;
146;SDS011;45999;48.808;9.182;2022-12-18T06:27:37;34.60;;;18.87;;
146;SDS011;45999;48.808;9.182;2022-12-18T06:30:03;34.03;;;19.37;;
146;SDS011;45999;48.808;9.182;2022-12-18T06:32:30;33.40;;;19.08;;
146;SDS011;45999;48.808;9.182;2022-12-18T06:34:57;35.30;;;18.80;;
146;SDS011;45999;48.808;9.182;2022-12-18T06:37:23;31.30;;;18.50;;
146;SDS011;45999;48.808;9.182;2022-12-18T06:39:51;30.10;;;18.13;;
146;SDS011;45999;48.808;9.182;2022-12-18T06:42:18;31.38;;;18.35;;
146;SDS011;45999;48.808;9.182;2022-12-18T06:44:46;35.35;;;18.63;;
146;SDS011;45999;48.808;9.182;2022-12-18T06:47:13;36.55;;;19.63;;
146;SDS011;45999;48.808;9.182;2022-12-18T06:49:39;32.57;;;18.97;;
146;SDS011;45999;48.808;9.182;2022-12-18T06:52:05;30.13;;;18.07;;
146;SDS011;45999;48.808;9.182;2022-12-18T06:54:32;32.53;;;18.80;;
146;SDS011;45999;48.808;9.182;2022-12-18T06:56:58;31.93;;;18.10;;
146;SDS011;45999;48.808;9.182;2022-12-18T06:59:25;36.40;;;19.07;;
146;SDS011;45999;48.808;9.182;2022-12-18T07:01:51;31.70;;;18.20;;
146;SDS011;45999;48.808;9.182;2022-12-18T07:04:17;34.65;;;18.17;;
146;SDS011;45999;48.808;9.182;2022-12-18T07:06:44;33.95;;;17.45;;
146;SDS011;45999;48.808;9.182;2022-12-18T07:09:12;33.25;;;18.55;;
146;SDS011;45999;48.808;9.182;2022-12-18T07:11:38;33.00;;;17.48;;
146;SDS011;45999;48.808;9.182;2022-12-18T07:14:04;30.40;;;17.85;;
146;SDS011;45999;48.808;9.182;2022-12-18T07:16:32;34.00;;;19.17;;
146;SDS011;45999;48.808;9.182;2022-12-18T07:18:58;31.63;;;18.60;;
146;SDS011;45999;48.808;9.182;2022-12-18T07:21:25;30.60;;;18.37;;
146;SDS011;45999;48.808;9.182;2022-12-18T07:23:51;34.73;;;17.70;;
146;SDS011;45999;48.808;9.182;2022-12-18T07:26:18;31.02;;;17.00;;
146;SDS011;45999;48.808;9.182;2022-12-18T07:28:47;31.10;;;17.10;;
146;SDS011;45999;48.808;9.182;2022-12-18T07:31:16;32.67;;;18.47;;
146;SDS011;45999;48.808;9.182;2022-12-18T07:33:43;32.63;;;18.47;;
146;SDS011;45999;48.808;9.182;2022-12-18T07:36:10;33.67;;;17.43;;
146;SDS011;45999;48.808;9.182;2022-12-18T07:38:37;29.98;;;18.35;;
146;SDS011;45999;48.808;9.182;2022-12-18T07:41:04;30.17;;;17.08;;
146;SDS011;45999;48.808;9.182;2022-12-18T07:43:33;31.70;;;17.60;;
146;SDS011;45999;48.808;9.182;2022-12-18T07:46:00;34.47;;;17.13;;
146;SDS011;45999;48.808;9.182;2022-12-18T07:48:27;30.37;;;17.37;;
146;SDS011;45999;48.808;9.182;2022-12-18T07:50:57;33.03;;;17.23;;
146;SDS011;45999;48.808;9.182;2022-12-18T07:53:26;34.17;;;17.47;;
146;SDS011;45999;48.808;9.182;2022-12-18T07:55:56;30.47;;;17.50;;
146;SDS011;45999;48.808;9.182;2022-12-18T07:58:27;30.43;;;17.03;;
146;SDS011;45999;48.808;9.182;2022-12-18T08:00:54;31.10;;;18.07;;
146;SDS011;45999;48.808;9.182;2022-12-18T08:03:28;31.83;;;18.10;;
146;SDS011;45999;48.808;9.182;2022-12-18T08:05:58;31.20;;;17.97;;
146;SDS011;45999;48.808;9.182;2022-12-18T08:08:25;30.13;;;17.90;;
146;SDS011;45999;48.808;9.182;2022-12-18T08:10:52;36.43;;;18.57;;
146;SDS011;45999;48.808;9.182;2022-12-18T08:13:18;32.47;;;18.47;;
146;SDS011;45999;48.808;9.182;2022-12-18T08:15:44;33.10;;;18.37;;
146;SDS011;45999;48.808;9.182;2022-12-18T08:18:11;31.50;;;17.60;;
146;SDS011;45999;48.808;9.182;2022-12-18T08:20:37;33.23;;;18.73;;
146;SDS011;45999;48.808;9.182;2022-12-18T08:23:11;31.27;;;18.05;;
146;SDS011;45999;48.808;9.182;2022-12-18T08:25:37;31.57;;;19.20;;
146;SDS011;45999;48.808;9.182;2022-12-18T08:28:04;34.20;;;18.33;;
146;SDS011;45999;48.808;9.182;2022-12-18T08:30:30;33.07;;;19.53;;
146;SDS011;45999;48.808;9.182;2022-12-18T08:32:56;30.53;;;18.00;;
146;SDS011;45999;48.808;9.182;2022-12-18T08:35:23;35.23;;;19.60;;
146;SDS011;45999;48.808;9.182;2022-12-18T08:37:49;34.07;;;18.77;;
146;SDS011;45999;48.808;9.182;2022-12-18T08:40:16;33.97;;;18.77;;
146;SDS011;45999;48.808;9.182;2022-12-18T08:42:42;38.30;;;20.33;;
146;SDS011;45999;48.808;9.182;2022-12-18T08:45:26;38.13;;;20.00;;
146;SDS011;45999;48.808;9.182;2022-12-18T08:47:52;37.37;;;20.00;;
146;SDS011;45999;48.808;9.182;2022-12-18T08:50:18;35.50;;;20.30;;
146;SDS011;45999;48.808;9.182;2022-12-18T08:52:45;33.00;;;19.30;;
146;SDS011;45999;48.808;9.182;2022-12-18T08:55:11;35.10;;;20.17;;
146;SDS011;45999;48.808;9.182;2022-12-18T08:57:37;36.17;;;19.07;;
146;SDS011;45999;48.808;9.182;2022-12-18T09:00:04;36.70;;;20.17;;
146;SDS011;45999;48.808;9.182;2022-12-18T09:02:31;34.00;;;19.70;;
146;SDS011;45999;48.808;9.182;2022-12-18T09:04:57;34.97;;;20.57;;
146;SDS011;45999;48.808;9.182;2022-12-18T09:07:24;35.03;;;20.67;;
146;SDS011;45999;48.808;9.182;2022-12-18T09:09:50;34.17;;;20.23;;
146;SDS011;45999;48.808;9.182;2022-12-18T09:12:16;35.97;;;20.20;;
146;SDS011;45999;48.808;9.182;2022-12-18T09:14:43;39.30;;;21.10;;
146;SDS011;45999;48.808;9.182;2022-12-18T09:17:09;38.27;;;20.27;;
146;SDS011;45999;48.808;9.182;2022-12-18T09:19:35;32.73;;;20.13;;
146;SDS011;45999;48.808;9.182;2022-12-18T09:22:02;32.93;;;19.97;;
146;SDS011;45999;48.808;9.182;2022-12-18T09:24:28;37.63;;;20.67;;
146;SDS011;45999;48.808;9.182;2022-12-18T09:26:55;36.93;;;21.27;;
146;SDS011;45999;48.808;9.182;2022-12-18T09:29:21;34.50;;;21.43;;
146;SDS011;45999;48.808;9.182;2022-12-18T09:31:47;36.23;;;19.53;;
146;SDS011;45999;48.808;9.182;2022-12-18T09:34:14;38.83;;;20.83;;
146;SDS011;45999;48.808;9.182;2022-12-18T09:36:41;35.83;;;20.60;;
146;SDS011;45999;48.808;9.182;2022-12-18T09:39:08;37.03;;;21.37;;
146;SDS011;45999;48.808;9.182;2022-12-18T09:46:44;32.07;;;20.73;;
146;SDS011;45999;48.808;9.182;2022-12-18T09:49:16;34.43;;;20.37;;
146;SDS011;45999;48.808;9.182;2022-12-18T09:51:47;34.40;;;20.13;;
146;SDS011;45999;48.808;9.182;2022-12-18T09:54:40;34.10;;;19.83;;
146;SDS011;45999;48.808;9.182;2022-12-18T09:57:15;35.47;;;19.83;;
146;SDS011;45999;48.808;9.182;2022-12-18T09:59:46;35.27;;;19.73;;
146;SDS011;45999;48.808;9.182;2022-12-18T10:02:19;33.23;;;20.57;;
146;SDS011;45999;48.808;9.182;2022-12-18T10:04:54;37.77;;;22.70;;
146;SDS011;45999;48.808;9.182;2022-12-18T10:07:43;35.80;;;21.20;;
146;SDS011;45999;48.808;9.182;2022-12-18T10:10:29;32.97;;;19.77;;
146;SDS011;45999;48.808;9.182;2022-12-18T10:24:44;34.67;;;20.87;;
146;SDS011;45999;48.808;9.182;2022-12-18T10:27:26;38.43;;;22.27;;
146;SDS011;45999;48.808;9.182;2022-12-18T10:29:53;36.43;;;21.43;;
146;SDS011;45999;48.808;9.182;2022-12-18T10:32:21;37.13;;;21.53;;
146;SDS011;45999;48.808;9.182;2022-12-18T10:34:51;36.27;;;21.37;;
146;SDS011;45999;48.808;9.182;2022-12-18T10:37:23;35.47;;;21.67;;
146;SDS011;45999;48.808;9.182;2022-12-18T10:42:40;40.27;;;21.00;;
146;SDS011;45999;48.808;9.182;2022-12-18T10:45:15;39.17;;;21.33;;
146;SDS011;45999;48.808;9.182;2022-12-18T10:47:43;32.23;;;20.43;;
146;SDS011;45999;48.808;9.182;2022-12-18T10:50:23;39.07;;;22.07;;
146;SDS011;45999;48.808;9.182;2022-12-18T10:52:58;35.33;;;20.87;;
146;SDS011;45999;48.808;9.182;2022-12-18T10:55:29;38.77;;;21.20;;
146;SDS011;45999;48.808;9.182;2022-12-18T11:01:14;36.10;;;21.53;;
146;SDS011;45999;48.808;9.182;2022-12-18T11:03:47;34.23;;;21.67;;
146;SDS011;45999;48.808;9.182;2022-12-18T11:06:25;36.27;;;21.43;;
146;SDS011;45999;48.808;9.182;2022-12-18T11:08:59;35.70;;;21.77;;
146;SDS011;45999;48.808;9.182;2022-12-18T11:11:26;32.63;;;19.83;;
146;SDS011;45999;48.808;9.182;2022-12-18T11:16:29;32.40;;;20.83;;
146;SDS011;45999;48.808;9.182;2022-12-18T11:19:10;35.37;;;20.30;;
146;SDS011;45999;48.808;9.182;2022-12-18T11:21:45;32.00;;;19.87;;
146;SDS011;45999;48.808;9.182;2022-12-18T11:24:19;37.30;;;20.33;;
146;SDS011;45999;48.808;9.182;2022-12-18T11:26:51;32.50;;;20.63;;
146;SDS011;45999;48.808;9.182;2022-12-18T11:29:19;37.70;;;20.90;;
146;SDS011;45999;48.808;9.182;2022-12-18T11:34:42;37.23;;;20.53;;
146;SDS011;45999;48.808;9.182;2022-12-18T11:37:14;32.17;;;19.40;;
146;SDS011;45999;48.808;9.182;2022-12-18T11:39:51;31.30;;;20.23;;
146;SDS011;45999;48.808;9.182;2022-12-18T11:42:32;31.33;;;18.27;;
146;SDS011;45999;48.808;9.182;2022-12-18T11:45:20;32.17;;;18.57;;
146;SDS011;45999;48.808;9.182;2022-12-18T11:53:02;32.67;;;19.13;;
146;SDS011;45999;48.808;9.182;2022-12-18T11:55:37;29.33;;;17.73;;
146;SDS011;45999;48.808;9.182;2022-12-18T12:12:36;36.47;;;20.33;;
146;SDS011;45999;48.808;9.182;2022-12-18T12:15:30;27.80;;;17.90;;
146;SDS011;45999;48.808;9.182;2022-12-18T12:23:58;29.27;;;18.67;;
146;SDS011;45999;48.808;9.182;2022-12-18T12:29:41;33.03;;;18.47;;
146;SDS011;45999;48.808;9.182;2022-12-18T12:32:40;28.97;;;17.93;;
146;SDS011;45999;48.808;9.182;2022-12-18T12:35:31;33.23;;;18.87;;
146;SDS011;45999;48.808;9.182;2022-12-18T12:38:02;32.00;;;19.03;;
146;SDS011;45999;48.808;9.182;2022-12-18T12:40:36;30.00;;;18.80;;
146;SDS011;45999;48.808;9.182;2022-12-18T12:43:25;31.90;;;19.03;;
146;SDS011;45999;48.808;9.182;2022-12-18T12:48:35;35.37;;;20.67;;
146;SDS011;45999;48.808;9.182;2022-12-18T12:51:02;29.80;;;18.80;;
146;SDS011;45999;48.808;9.182;2022-12-18T12:53:35;30.90;;;18.87;;
146;SDS011;45999;48.808;9.182;2022-12-18T12:56:04;28.37;;;18.57;;
146;SDS011;45999;48.808;9.182;2022-12-18T12:58:34;29.17;;;19.07;;
146;SDS011;45999;48.808;9.182;2022-12-18T13:03:44;30.50;;;18.57;;
146;SDS011;45999;48.808;9.182;2022-12-18T13:06:36;29.13;;;17.60;;
146;SDS011;45999;48.808;9.182;2022-12-18T13:09:09;28.93;;;18.57;;
146;SDS011;45999;48.808;9.182;2022-12-18T13:11:39;26.27;;;17.40;;
146;SDS011;45999;48.808;9.182;2022-12-18T13:14:59;27.10;;;17.00;;
146;SDS011;45999;48.808;9.182;2022-12-18T13:19:55;26.47;;;16.77;;
146;SDS011;45999;48.808;9.182;2022-12-18T13:22:30;27.37;;;17.00;;
146;SDS011;45999;48.808;9.182;2022-12-18T13:28:01;30.27;;;17.90;;
146;SDS011;45999;48.808;9.182;2022-12-18T13:30:47;29.40;;;17.87;;
146;SDS011;45999;48.808;9.182;2022-12-18T13:38:20;30.53;;;18.63;;
146;SDS011;45999;48.808;9.182;2022-12-18T13:46:05;31.03;;;19.10;;
146;SDS011;45999;48.808;9.182;2022-12-18T13:48:52;27.50;;;17.63;;
146;SDS011;45999;48.808;9.182;2022-12-18T13:51:22;30.10;;;18.83;;
146;SDS011;45999;48.808;9.182;2022-12-18T13:53:54;29.90;;;19.30;;
146;SDS011;45999;48.808;9.182;2022-12-18T13:56:25;29.70;;;18.90;;
146;SDS011;45999;48.808;9.182;2022-12-18T13:59:03;33.00;;;19.80;;
146;SDS011;45999;48.808;9.182;2022-12-18T14:01:32;30.77;;;19.30;;
146;SDS011;45999;48.808;9.182;2022-12-18T14:04:08;30.77;;;19.13;;
146;SDS011;45999;48.808;9.182;2022-12-18T14:06:36;37.53;;;20.57;;
146;SDS011;45999;48.808;9.182;2022-12-18T14:09:02;32.20;;;19.50;;
146;SDS011;45999;48.808;9.182;2022-12-18T14:11:29;31.50;;;19.77;;
146;SDS011;45999;48.808;9.182;2022-12-18T14:13:56;36.57;;;21.23;;
146;SDS011;45999;48.808;9.182;2022-12-18T14:16:23;32.33;;;19.90;;
146;SDS011;45999;48.808;9.182;2022-12-18T14:18:54;33.40;;;21.47;;
146;SDS011;45999;48.808;9.182;2022-12-18T14:21:24;35.90;;;19.97;;
146;SDS011;45999;48.808;9.182;2022-12-18T14:26:35;33.97;;;20.57;;
146;SDS011;45999;48.808;9.182;2022-12-18T14:29:16;34.57;;;20.70;;
146;SDS011;45999;48.808;9.182;2022-12-18T14:31:45;34.33;;;20.07;;
146;SDS011;45999;48.808;9.182;2022-12-18T14:34:18;31.50;;;20.07;;
146;SDS011;45999;48.808;9.182;2022-12-18T14:36:53;38.13;;;21.40;;
146;SDS011;45999;48.808;9.182;2022-12-18T14:39:21;34.40;;;21.43;;
146;SDS011;45999;48.808;9.182;2022-12-18T14:41:48;38.03;;;22.00;;
146;SDS011;45999;48.808;9.182;2022-12-18T14:44:15;37.63;;;21.80;;
146;SDS011;45999;48.808;9.182;2022-12-18T14:46:42;33.63;;;22.53;;
146;SDS011;45999;48.808;9.182;2022-12-18T14:49:26;34.73;;;22.07;;
146;SDS011;45999;48.808;9.182;2022-12-18T14:52:01;38.17;;;21.77;;
146;SDS011;45999;48.808;9.182;2022-12-18T14:54:30;43.03;;;23.77;;
146;SDS011;45999;48.808;9.182;2022-12-18T14:57:02;36.60;;;23.10;;
146;SDS011;45999;48.808;9.182;2022-12-18T14:59:32;37.80;;;22.83;;
146;SDS011;45999;48.808;9.182;2022-12-18T15:02:03;34.33;;;21.73;;
146;SDS011;45999;48.808;9.182;2022-12-18T15:04:45;35.77;;;22.27;;
146;SDS011;45999;48.808;9.182;2022-12-18T15:07:19;40.03;;;23.33;;
146;SDS011;45999;48.808;9.182;2022-12-18T15:10:08;35.10;;;22.70;;
146;SDS011;45999;48.808;9.182;2022-12-18T15:12:37;45.27;;;24.10;;
146;SDS011;45999;48.808;9.182;2022-12-18T15:18:02;41.73;;;24.40;;
146;SDS011;45999;48.808;9.182;2022-12-18T15:20:31;40.60;;;24.83;;
146;SDS011;45999;48.808;9.182;2022-12-18T15:23:21;38.80;;;23.97;;
146;SDS011;45999;48.808;9.182;2022-12-18T15:26:07;40.83;;;23.93;;
146;SDS011;45999;48.808;9.182;2022-12-18T15:33:38;43.43;;;24.53;;
146;SDS011;45999;48.808;9.182;2022-12-18T15:36:10;39.93;;;23.13;;
146;SDS011;45999;48.808;9.182;2022-12-18T15:38:41;41.03;;;22.63;;
146;SDS011;45999;48.808;9.182;2022-12-18T15:41:12;39.83;;;24.33;;
146;SDS011;45999;48.808;9.182;2022-12-18T15:43:41;40.87;;;23.20;;
146;SDS011;45999;48.808;9.182;2022-12-18T15:46:08;43.13;;;24.67;;
146;SDS011;45999;48.808;9.182;2022-12-18T15:48:40;40.67;;;25.13;;
146;SDS011;45999;48.808;9.182;2022-12-18T15:51:12;39.67;;;23.50;;
146;SDS011;45999;48.808;9.182;2022-12-18T15:53:50;42.53;;;24.00;;
146;SDS011;45999;48.808;9.182;2022-12-18T15:56:20;41.80;;;23.40;;
146;SDS011;45999;48.808;9.182;2022-12-18T15:59:08;41.10;;;22.97;;
146;SDS011;45999;48.808;9.182;2022-12-18T16:01:38;43.17;;;22.80;;
146;SDS011;45999;48.808;9.182;2022-12-18T16:04:05;40.60;;;23.37;;
146;SDS011;45999;48.808;9.182;2022-12-18T16:06:31;41.87;;;22.67;;
146;SDS011;45999;48.808;9.182;2022-12-18T16:08:58;40.23;;;21.83;;
146;SDS011;45999;48.808;9.182;2022-12-18T16:11:28;37.80;;;22.23;;
146;SDS011;45999;48.808;9.182;2022-12-18T16:16:42;37.60;;;22.20;;
146;SDS011;45999;48.808;9.182;2022-12-18T16:19:09;40.77;;;23.30;;
146;SDS011;45999;48.808;9.182;2022-12-18T16:21:35;42.40;;;23.23;;
146;SDS011;45999;48.808;9.182;2022-12-18T16:24:02;46.70;;;24.07;;
146;SDS011;45999;48.808;9.182;2022-12-18T16:26:28;38.47;;;23.43;;
146;SDS011;45999;48.808;9.182;2022-12-18T16:28:57;38.20;;;22.83;;
146;SDS011;45999;48.808;9.182;2022-12-18T16:31:24;42.77;;;24.23;;
146;SDS011;45999;48.808;9.182;2022-12-18T16:34:09;39.33;;;22.40;;
146;SDS011;45999;48.808;9.182;2022-12-18T16:36:58;38.80;;;23.30;;
146;SDS011;45999;48.808;9.182;2022-12-18T16:39:27;38.70;;;22.87;;
146;SDS011;45999;48.808;9.182;2022-12-18T16:41:55;40.73;;;25.20;;
146;SDS011;45999;48.808;9.182;2022-12-18T16:44:21;45.17;;;24.70;;
146;SDS011;45999;48.808;9.182;2022-12-18T16:46:48;41.97;;;24.60;;
146;SDS011;45999;48.808;9.182;2022-12-18T16:49:15;43.30;;;24.77;;
146;SDS011;45999;48.808;9.182;2022-12-18T16:51:43;44.13;;;25.37;;
146;SDS011;45999;48.808;9.182;2022-12-18T16:54:12;38.83;;;23.07;;
146;SDS011;45999;48.808;9.182;2022-12-18T16:56:38;42.63;;;24.20;;
146;SDS011;45999;48.808;9.182;2022-12-18T16:59:06;37.83;;;23.20;;
146;SDS011;45999;48.808;9.182;2022-12-18T17:01:34;40.53;;;23.13;;
146;SDS011;45999;48.808;9.182;2022-12-18T17:04:01;42.37;;;25.10;;